Time;durP1;ratioP1;P1;durP2;ratioP2;P2;SDS_P1;SDS_P2;PMS_P1;PMS_P2;Temp;Humidity;BMP_temperature;BMP_pressure;BME280_temperature;BME280_humidity;BME280_pressure;Samples;Min_cycle;Max_cycle;Signal;HPM_P1;HPM_P2
2023/01/20 00:01:35;;;;;;;15.48;2.03;;;3.10;99.90;;;;;;5081661;28;19994;-91
2023/01/20 00:04:01;;;;;;;9.05;1.58;;;3.20;99.90;;;;;;5069795;28;20072;-91
2023/01/20 00:06:27;;;;;;;7.13;2.58;;;3.20;99.90;;;;;;5081247;28;19997;-89
2023/01/20 00:08:54;;;;;;;10.55;1.98;;;3.20;99.90;;;;;;5080060;28;20020;-91
2023/01/20 00:11:21;;;;;;;7.50;1.48;;;3.20;99.90;;;;;;5080217;28;20039;-93
2023/01/20 00:13:54;;;;;;;9.07;1.55;;;3.20;99.90;;;;;;5080063;28;20021;-91
2023/01/20 00:16:27;;;;;;;9.60;1.48;;;3.20;99.90;;;;;;5079510;28;20013;-91
2023/01/20 00:18:54;;;;;;;11.80;1.60;;;3.20;99.90;;;;;;5078977;28;20044;-91
2023/01/20 00:21:21;;;;;;;5.03;1.45;;;3.20;99.90;;;;;;5079440;28;20025;-92
2023/01/20 00:23:53;;;;;;;10.25;2.72;;;3.30;99.90;;;;;;5079657;28;20025;-91
2023/01/20 00:26:21;;;;;;;10.98;1.60;;;3.30;99.90;;;;;;5079181;28;20028;-91
2023/01/20 00:28:48;;;;;;;7.57;2.03;;;3.30;99.90;;;;;;5079488;28;20005;-89
2023/01/20 00:31:51;;;;;;;4.20;1.30;;;3.30;99.90;;;;;;5079544;28;20084;-90
2023/01/20 00:34:16;;;;;;;13.82;1.25;;;3.30;99.90;;;;;;5080051;28;20093;-90
2023/01/20 00:36:42;;;;;;;7.88;1.70;;;3.30;99.90;;;;;;5079365;28;20016;-90
2023/01/20 00:39:08;;;;;;;8.77;1.48;;;3.30;99.90;;;;;;5079479;28;20104;-90
2023/01/20 00:41:33;;;;;;;15.43;1.55;;;3.20;99.90;;;;;;5080213;28;20035;-91
2023/01/20 00:44:08;;;;;;;8.35;2.47;;;3.30;99.90;;;;;;5079642;28;20017;-90
2023/01/20 00:46:34;;;;;;;10.13;1.80;;;3.30;99.90;;;;;;5079725;28;20025;-88
2023/01/20 00:48:59;;;;;;;10.02;1.63;;;3.30;99.90;;;;;;5078201;28;20027;-90
2023/01/20 00:51:25;;;;;;;7.90;1.40;;;3.20;99.90;;;;;;5095580;28;20059;-90
2023/01/20 00:53:51;;;;;;;7.75;1.63;;;3.20;99.90;;;;;;5081623;28;20035;-91
2023/01/20 00:56:17;;;;;;;14.15;1.85;;;3.30;99.90;;;;;;5099087;28;20016;-90
2023/01/20 00:58:44;;;;;;;7.50;1.58;;;3.20;99.90;;;;;;5081606;28;20039;-90
2023/01/20 01:01:10;;;;;;;10.15;2.28;;;3.20;99.90;;;;;;5078641;28;20029;-90
2023/01/20 01:03:44;;;;;;;5.50;1.63;;;3.20;99.90;;;;;;5098706;28;20036;-90
2023/01/20 01:06:14;;;;;;;12.02;2.00;;;3.20;99.90;;;;;;5075697;28;20092;-90
2023/01/20 01:08:41;;;;;;;7.40;1.40;;;3.20;99.90;;;;;;5081477;28;20016;-91
2023/01/20 01:11:07;;;;;;;10.90;1.80;;;3.30;99.90;;;;;;5095804;28;20080;-90
2023/01/20 01:13:36;;;;;;;8.60;1.45;;;3.20;99.90;;;;;;5081669;28;20016;-90
2023/01/20 01:16:02;;;;;;;7.82;1.60;;;3.20;99.90;;;;;;5081723;28;20016;-91
2023/01/20 01:18:27;;;;;;;5.10;1.38;;;3.30;99.90;;;;;;5098840;28;20047;-91
2023/01/20 01:20:53;;;;;;;5.43;1.35;;;3.20;99.90;;;;;;5081559;28;20034;-91
2023/01/20 01:23:19;;;;;;;5.78;1.20;;;3.20;99.90;;;;;;5081435;28;20036;-90
2023/01/20 01:25:44;;;;;;;6.95;1.17;;;3.20;99.90;;;;;;5081394;28;20038;-90
2023/01/20 01:28:10;;;;;;;7.68;1.30;;;3.20;99.90;;;;;;5064740;28;20016;-91
2023/01/20 01:30:39;;;;;;;2.97;1.33;;;3.20;99.90;;;;;;5081144;28;20017;-92
2023/01/20 01:33:05;;;;;;;4.68;1.30;;;3.20;99.90;;;;;;5098252;28;20028;-92
2023/01/20 01:35:37;;;;;;;9.82;1.30;;;3.20;99.90;;;;;;5080487;28;20105;-92
2023/01/20 01:38:03;;;;;;;2.45;0.90;;;3.20;99.90;;;;;;5080536;28;20087;-91
2023/01/20 01:40:28;;;;;;;4.85;1.25;;;3.20;99.90;;;;;;5080929;28;20032;-90
2023/01/20 01:42:54;;;;;;;13.40;1.58;;;3.10;99.90;;;;;;5064048;28;20048;-91
2023/01/20 01:45:22;;;;;;;8.02;1.50;;;3.10;99.90;;;;;;5080759;28;20027;-91
2023/01/20 01:48:12;;;;;;;8.02;1.05;;;3.10;99.90;;;;;;5080610;28;20043;-92
2023/01/20 01:51:08;;;;;;;6.45;1.52;;;3.10;99.90;;;;;;5075864;28;20044;-90
2023/01/20 01:53:43;;;;;;;7.18;1.42;;;3.10;99.90;;;;;;5058358;28;20087;-93
2023/01/20 01:56:10;;;;;;;8.30;1.30;;;3.10;99.90;;;;;;5077129;28;20088;-92
2023/01/20 01:58:39;;;;;;;7.05;1.60;;;3.00;99.90;;;;;;5077869;28;20048;-92
2023/01/20 02:01:05;;;;;;;13.65;3.22;;;3.00;99.90;;;;;;5074335;28;20013;-91
2023/01/20 02:03:43;;;;;;;5.00;1.15;;;3.00;99.90;;;;;;5076954;28;20047;-92
2023/01/20 02:06:09;;;;;;;7.45;1.70;;;3.00;99.90;;;;;;5088487;28;20075;-91
2023/01/20 02:08:35;;;;;;;11.45;1.52;;;3.00;99.90;;;;;;5075406;28;20020;-92
2023/01/20 02:11:01;;;;;;;9.60;2.38;;;2.90;99.90;;;;;;5077158;28;20020;-91
2023/01/20 02:13:27;;;;;;;12.35;1.80;;;2.90;99.90;;;;;;5076685;28;20017;-89
2023/01/20 02:16:25;;;;;;;4.53;0.93;;;2.90;99.90;;;;;;5077363;28;20068;-90
2023/01/20 02:18:56;;;;;;;8.00;2.13;;;2.90;99.90;;;;;;5074946;28;20036;-90
2023/01/20 02:21:37;;;;;;;7.93;1.73;;;2.90;99.90;;;;;;5077325;28;20035;-90
2023/01/20 02:24:22;;;;;;;7.38;1.48;;;2.90;99.90;;;;;;5077098;28;20073;-89
2023/01/20 02:27:35;;;;;;;9.85;1.73;;;2.80;99.90;;;;;;5076272;28;20032;-89
2023/01/20 02:30:26;;;;;;;9.00;1.40;;;2.80;99.90;;;;;;5070985;28;20017;-89
2023/01/20 02:32:59;;;;;;;6.50;1.58;;;2.80;99.90;;;;;;5071847;28;20013;-90
2023/01/20 02:35:44;;;;;;;11.23;1.30;;;2.80;99.90;;;;;;5077244;28;20042;-90
2023/01/20 02:38:17;;;;;;;4.13;1.40;;;2.80;99.90;;;;;;5074328;28;20040;-92
2023/01/20 02:41:07;;;;;;;9.02;1.50;;;2.80;99.90;;;;;;5076980;28;20015;-90
2023/01/20 02:44:08;;;;;;;7.40;1.50;;;2.70;99.90;;;;;;5076449;28;20013;-91
2023/01/20 02:46:46;;;;;;;;;;;2.70;99.90;;;;;;5058267;28;20033;-90
2023/01/20 02:49:36;;;;;;;8.02;1.73;;;2.70;99.90;;;;;;5076672;28;19893;-89
2023/01/20 02:52:09;;;;;;;7.53;1.52;;;2.70;99.90;;;;;;5072804;28;20036;-88
2023/01/20 02:54:38;;;;;;;8.60;1.27;;;2.60;99.90;;;;;;5078273;28;20081;-92
2023/01/20 02:57:08;;;;;;;10.68;1.50;;;2.70;99.90;;;;;;5077518;28;20024;-89
2023/01/20 02:59:40;;;;;;;5.82;1.30;;;2.70;99.90;;;;;;5078241;28;20021;-90
2023/01/20 03:02:12;;;;;;;9.13;1.50;;;2.70;99.90;;;;;;5078306;28;20041;-90
2023/01/20 03:04:56;;;;;;;7.78;2.08;;;2.70;99.90;;;;;;5077557;28;20047;-90
2023/01/20 03:07:26;;;;;;;8.85;1.60;;;2.70;99.90;;;;;;5076459;28;20033;-89
2023/01/20 03:09:55;;;;;;;7.97;1.38;;;2.70;99.90;;;;;;5077335;28;20020;-90
2023/01/20 03:12:49;;;;;;;11.43;1.50;;;2.60;99.90;;;;;;5077096;28;20021;-89
2023/01/20 03:15:18;;;;;;;8.02;1.55;;;2.60;99.90;;;;;;5076824;28;20028;-90
2023/01/20 03:17:44;;;;;;;7.10;1.73;;;2.60;99.90;;;;;;5077115;28;20063;-90
2023/01/20 03:20:12;;;;;;;9.48;1.63;;;2.60;99.90;;;;;;5074836;28;20021;-90
2023/01/20 03:22:37;;;;;;;6.70;1.38;;;2.60;99.90;;;;;;5080639;28;20024;-90
2023/01/20 03:25:04;;;;;;;15.05;1.77;;;2.60;99.90;;;;;;5080205;28;20009;-91
2023/01/20 03:27:29;;;;;;;15.38;1.70;;;2.60;99.90;;;;;;5080324;28;20024;-89
2023/01/20 03:29:55;;;;;;;7.78;1.50;;;2.60;99.90;;;;;;5080372;28;20068;-89
2023/01/20 03:32:25;;;;;;;9.23;1.70;;;2.60;99.90;;;;;;5080933;28;20021;-89
2023/01/20 03:34:53;;;;;;;8.20;2.08;;;2.60;99.90;;;;;;5080957;28;20023;-90
2023/01/20 03:37:19;;;;;;;12.32;1.45;;;2.60;99.90;;;;;;5079663;28;20051;-90
2023/01/20 03:39:45;;;;;;;7.45;1.88;;;2.50;99.90;;;;;;5079898;28;20029;-90
2023/01/20 03:42:32;;;;;;;7.90;1.80;;;2.60;99.90;;;;;;5079735;28;20009;-91
2023/01/20 03:45:07;;;;;;;14.68;1.45;;;2.50;99.90;;;;;;5080460;28;20013;-90
2023/01/20 03:47:35;;;;;;;8.77;1.25;;;2.50;99.90;;;;;;5079715;28;20101;-89
2023/01/20 03:50:06;;;;;;;6.93;1.20;;;2.50;99.90;;;;;;5079199;28;20033;-90
2023/01/20 03:52:43;;;;;;;11.40;1.33;;;2.50;99.90;;;;;;5078967;28;20047;-90
2023/01/20 03:55:14;;;;;;;8.77;2.08;;;2.50;99.90;;;;;;5077736;28;20009;-90
2023/01/20 03:57:52;;;;;;;4.63;1.15;;;2.50;99.90;;;;;;5079226;28;20044;-89
2023/01/20 04:00:21;;;;;;;8.20;1.08;;;2.50;99.90;;;;;;5079067;28;20036;-91
2023/01/20 04:02:52;;;;;;;7.80;1.38;;;2.50;99.90;;;;;;5078111;28;20043;-91
2023/01/20 04:05:18;;;;;;;7.93;1.17;;;2.50;99.90;;;;;;5078446;28;20028;-91
2023/01/20 04:07:45;;;;;;;5.72;1.40;;;2.50;99.90;;;;;;5078240;28;20025;-90
2023/01/20 04:10:14;;;;;;;11.35;1.75;;;2.50;99.90;;;;;;5078946;28;20059;-88
2023/01/20 04:12:40;;;;;;;8.68;1.27;;;2.50;99.90;;;;;;5078392;28;20040;-90
2023/01/20 04:15:07;;;;;;;7.65;1.15;;;2.50;99.90;;;;;;5061735;28;20025;-90
2023/01/20 04:17:34;;;;;;;7.82;1.35;;;2.50;99.90;;;;;;5078693;28;20040;-90
2023/01/20 04:20:07;;;;;;;10.65;1.63;;;2.40;99.90;;;;;;5078714;28;20036;-89
2023/01/20 04:22:54;;;;;;;11.93;1.55;;;2.40;99.90;;;;;;5062170;28;20013;-90
2023/01/20 04:25:32;;;;;;;6.05;1.30;;;2.40;99.90;;;;;;5079543;28;20262;-91
2023/01/20 04:27:59;;;;;;;9.35;1.45;;;2.40;99.90;;;;;;5078964;28;20033;-90
2023/01/20 04:30:24;;;;;;;4.60;1.13;;;2.50;99.90;;;;;;5078640;28;20096;-90
2023/01/20 04:32:51;;;;;;;11.30;2.42;;;2.50;99.90;;;;;;5078232;28;20025;-91
2023/01/20 04:35:20;;;;;;;10.05;1.77;;;2.50;99.90;;;;;;5078124;28;20055;-91
2023/01/20 04:37:45;;;;;;;4.95;1.10;;;2.40;99.90;;;;;;5077990;28;20045;-91
2023/01/20 04:40:12;;;;;;;10.05;1.38;;;2.40;99.90;;;;;;5078402;28;20057;-90
2023/01/20 04:42:38;;;;;;;6.25;1.30;;;2.40;99.90;;;;;;5077952;28;20017;-89
2023/01/20 04:45:04;;;;;;;7.80;1.38;;;2.30;99.90;;;;;;5078152;28;20052;-88
2023/01/20 04:47:33;;;;;;;5.53;1.23;;;2.30;99.90;;;;;;5078698;28;20017;-88
2023/01/20 04:49:59;;;;;;;4.45;1.23;;;2.30;99.90;;;;;;5078071;28;20052;-90
2023/01/20 04:52:24;;;;;;;7.65;1.48;;;2.20;99.90;;;;;;5078033;28;20029;-90
2023/01/20 04:54:50;;;;;;;7.20;1.50;;;2.10;99.90;;;;;;5077939;28;20017;-90
2023/01/20 04:57:16;;;;;;;7.18;1.30;;;2.10;99.90;;;;;;5078047;28;20020;-90
2023/01/20 04:59:41;;;;;;;13.70;4.18;;;2.00;99.90;;;;;;5077854;28;20021;-88
2023/01/20 05:02:07;;;;;;;5.88;1.23;;;2.00;99.90;;;;;;5078098;28;20039;-89
2023/01/20 05:04:33;;;;;;;5.65;1.20;;;2.00;99.90;;;;;;5077628;28;20021;-89
2023/01/20 05:06:58;;;;;;;10.55;1.40;;;2.00;99.90;;;;;;5077790;28;20013;-90
2023/01/20 05:09:24;;;;;;;4.53;1.20;;;2.00;99.90;;;;;;5078039;28;20056;-88
2023/01/20 05:11:50;;;;;;;4.25;1.20;;;2.00;99.90;;;;;;5078765;28;20020;-89
2023/01/20 05:14:15;;;;;;;8.20;1.20;;;1.90;99.90;;;;;;5078183;28;20021;-89
2023/01/20 05:16:41;;;;;;;9.63;1.50;;;1.80;99.90;;;;;;5077444;28;20028;-90
2023/01/20 05:19:07;;;;;;;7.32;1.60;;;1.80;99.90;;;;;;5077231;28;20033;-90
2023/01/20 05:21:33;;;;;;;7.72;1.40;;;1.80;99.90;;;;;;5077341;28;20019;-90
2023/01/20 05:23:59;;;;;;;5.60;1.10;;;1.80;99.90;;;;;;5077848;28;20021;-91
2023/01/20 05:26:25;;;;;;;13.40;1.33;;;1.70;99.90;;;;;;5077239;28;20023;-92
2023/01/20 05:28:51;;;;;;;10.70;1.52;;;1.70;99.90;;;;;;5077036;28;20036;-91
2023/01/20 05:31:17;;;;;;;18.63;2.17;;;1.70;99.90;;;;;;5077310;28;20030;-91
2023/01/20 05:33:43;;;;;;;10.02;1.67;;;1.60;99.90;;;;;;5077399;28;20035;-91
2023/01/20 05:36:09;;;;;;;14.75;3.15;;;1.60;99.90;;;;;;5078961;28;20081;-90
2023/01/20 05:38:36;;;;;;;10.18;1.30;;;1.50;99.90;;;;;;5078682;28;20048;-93
2023/01/20 05:41:04;;;;;;;8.00;1.60;;;1.50;99.90;;;;;;5078490;28;20027;-93
2023/01/20 05:43:29;;;;;;;10.18;1.60;;;1.50;99.90;;;;;;5078080;28;20015;-92
2023/01/20 05:45:58;;;;;;;6.20;1.70;;;1.50;99.90;;;;;;5079156;28;20021;-91
2023/01/20 05:48:24;;;;;;;4.68;1.30;;;1.50;99.90;;;;;;5078278;28;20021;-90
2023/01/20 05:50:50;;;;;;;7.05;1.73;;;1.50;99.90;;;;;;5078293;28;20070;-92
2023/01/20 05:53:19;;;;;;;10.95;1.60;;;1.40;99.90;;;;;;5078407;28;20017;-91
2023/01/20 05:55:45;;;;;;;11.93;2.33;;;1.40;99.90;;;;;;5078395;28;20029;-90
2023/01/20 05:58:11;;;;;;;4.40;1.67;;;1.40;99.90;;;;;;5077201;28;20025;-90
2023/01/20 06:00:37;;;;;;;8.65;1.73;;;1.40;99.90;;;;;;5078150;28;20021;-92
2023/01/20 06:03:03;;;;;;;8.95;1.60;;;1.40;99.90;;;;;;5078162;28;20017;-89
2023/01/20 06:05:29;;;;;;;6.43;2.03;;;1.40;99.90;;;;;;5077543;28;20009;-92
2023/01/20 06:07:55;;;;;;;5.63;1.98;;;1.40;99.90;;;;;;5076941;28;20062;-91
2023/01/20 06:10:24;;;;;;;6.55;2.20;;;1.30;99.90;;;;;;5076251;28;20037;-92
2023/01/20 06:12:53;;;;;;;9.93;1.85;;;1.30;99.90;;;;;;5077048;28;20017;-90
2023/01/20 06:15:20;;;;;;;7.00;1.70;;;1.30;99.90;;;;;;5076967;28;20033;-93
2023/01/20 06:17:46;;;;;;;6.63;1.58;;;1.30;99.90;;;;;;5076293;28;20061;-91
2023/01/20 06:20:11;;;;;;;5.45;2.35;;;1.30;99.90;;;;;;5077279;28;20035;-90
2023/01/20 06:22:37;;;;;;;12.57;2.13;;;1.30;99.90;;;;;;5076726;28;20036;-92
2023/01/20 06:25:03;;;;;;;8.48;2.33;;;1.30;99.90;;;;;;5076809;28;20013;-95
2023/01/20 06:27:29;;;;;;;8.32;2.60;;;1.30;99.90;;;;;;5076475;28;20040;-91
2023/01/20 06:29:55;;;;;;;16.67;2.67;;;1.30;99.90;;;;;;5076801;28;20029;-94
2023/01/20 06:32:20;;;;;;;10.35;2.40;;;1.30;99.90;;;;;;5076216;28;20093;-92
2023/01/20 06:34:46;;;;;;;9.90;2.35;;;1.30;99.90;;;;;;5075209;28;20096;-92
2023/01/20 06:37:12;;;;;;;8.02;2.20;;;1.30;99.90;;;;;;5075624;28;20029;-92
2023/01/20 06:39:39;;;;;;;12.57;2.53;;;1.30;99.90;;;;;;5075327;28;20029;-92
2023/01/20 06:42:05;;;;;;;10.82;2.47;;;1.20;99.90;;;;;;5074173;28;20025;-91
2023/01/20 06:44:32;;;;;;;9.55;3.00;;;1.20;99.90;;;;;;5074214;28;20033;-92
2023/01/20 06:46:58;;;;;;;8.60;2.20;;;1.20;99.90;;;;;;5074502;28;20029;-92
2023/01/20 06:49:24;;;;;;;7.70;1.92;;;1.10;99.90;;;;;;5074581;28;20021;-90
2023/01/20 06:51:50;;;;;;;6.10;1.70;;;1.10;99.90;;;;;;5093632;28;20096;-94
2023/01/20 06:54:16;;;;;;;12.60;2.28;;;1.10;99.90;;;;;;5077925;28;20031;-93
2023/01/20 06:56:42;;;;;;;12.93;2.92;;;1.00;99.90;;;;;;5100920;28;20013;-93
2023/01/20 06:59:09;;;;;;;9.02;3.25;;;1.00;99.90;;;;;;5080877;28;20568;-93
2023/01/20 07:01:35;;;;;;;7.30;2.08;;;1.00;99.90;;;;;;5077067;28;20079;-94
2023/01/20 07:04:01;;;;;;;7.38;2.75;;;1.00;99.90;;;;;;5077738;28;20027;-91
2023/01/20 07:06:34;;;;;;;11.05;2.53;;;1.00;99.90;;;;;;5079101;28;20024;-93
2023/01/20 07:09:01;;;;;;;10.38;3.83;;;1.00;99.90;;;;;;5076062;28;20079;-95
2023/01/20 07:11:27;;;;;;;12.88;3.30;;;1.00;99.90;;;;;;5090711;28;20048;-95
2023/01/20 07:13:53;;;;;;;11.23;3.58;;;0.90;99.90;;;;;;5081213;28;20029;-94
2023/01/20 07:16:19;;;;;;;8.27;2.70;;;1.00;99.90;;;;;;5080035;28;20050;-94
2023/01/20 07:18:52;;;;;;;6.65;2.45;;;0.90;99.90;;;;;;5092685;28;20477;-95
2023/01/20 07:21:21;;;;;;;11.95;2.70;;;0.90;99.90;;;;;;5076998;28;20013;-93
2023/01/20 07:23:47;;;;;;;9.05;3.22;;;0.90;99.90;;;;;;5091875;28;20092;-92
2023/01/20 07:26:16;;;;;;;6.10;2.65;;;0.90;99.90;;;;;;5076108;28;20025;-94
2023/01/20 07:28:42;;;;;;;9.85;3.25;;;0.90;99.90;;;;;;5077138;28;20028;-92
2023/01/20 07:31:10;;;;;;;10.80;3.20;;;0.80;99.90;;;;;;5076533;28;20036;-94
2023/01/20 07:33:38;;;;;;;7.40;2.67;;;0.80;99.90;;;;;;5095982;28;20021;-93
2023/01/20 07:36:06;;;;;;;9.55;3.50;;;0.80;99.90;;;;;;5076944;28;20028;-92
2023/01/20 07:38:33;;;;;;;8.88;2.55;;;0.80;99.90;;;;;;5099823;28;20032;-91
2023/01/20 07:41:00;;;;;;;7.53;2.80;;;0.80;99.90;;;;;;5082987;28;20020;-88
2023/01/20 07:43:26;;;;;;;4.95;2.05;;;0.80;99.90;;;;;;5100252;28;20028;-92
2023/01/20 07:45:56;;;;;;;7.03;2.40;;;0.70;99.90;;;;;;5082783;28;20084;-90
2023/01/20 07:48:24;;;;;;;12.50;2.90;;;0.70;99.90;;;;;;5084021;28;20013;-90
2023/01/20 07:51:01;;;;;;;9.60;2.67;;;0.70;99.90;;;;;;5077864;28;20059;-91
2023/01/20 07:53:31;;;;;;;11.30;3.05;;;0.80;99.90;;;;;;5078282;28;20025;-92
2023/01/20 07:56:03;;;;;;;7.23;2.20;;;0.80;99.90;;;;;;5075961;28;20033;-91
2023/01/20 07:58:49;;;;;;;7.00;2.95;;;0.90;99.90;;;;;;5075233;28;20017;-92
2023/01/20 08:01:34;;;;;;;6.22;2.80;;;0.90;99.90;;;;;;5076638;28;20045;-93
2023/01/20 08:04:00;;;;;;;9.77;3.13;;;0.90;99.90;;;;;;5060779;28;20043;-94
2023/01/20 08:06:26;;;;;;;11.35;2.80;;;0.90;99.90;;;;;;5076505;28;20087;-95
2023/01/20 08:08:53;;;;;;;7.80;2.90;;;0.80;99.90;;;;;;5077640;28;20016;-93
2023/01/20 08:11:21;;;;;;;8.13;3.28;;;0.90;99.90;;;;;;5078036;28;20025;-90
2023/01/20 08:13:46;;;;;;;9.43;2.60;;;0.80;99.90;;;;;;5078795;28;20018;-92
2023/01/20 08:16:14;;;;;;;3.50;1.85;;;0.70;99.90;;;;;;5079267;28;20013;-92
2023/01/20 08:18:44;;;;;;;7.13;2.85;;;0.80;99.90;;;;;;5078441;28;20021;-93
2023/01/20 08:21:21;;;;;;;4.72;2.85;;;0.70;99.90;;;;;;5079405;28;20136;-95
2023/01/20 08:23:47;;;;;;;7.68;2.05;;;0.70;99.90;;;;;;5079147;28;20024;-91
2023/01/20 08:26:13;;;;;;;5.88;1.98;;;0.70;99.90;;;;;;5080487;28;20024;-92
2023/01/20 08:28:39;;;;;;;11.95;2.58;;;0.70;99.90;;;;;;5079983;28;20028;-92
2023/01/20 08:31:12;;;;;;;9.45;2.83;;;0.60;99.90;;;;;;5080450;28;20017;-93
2023/01/20 08:33:41;;;;;;;8.68;3.10;;;0.60;99.90;;;;;;5079951;28;20016;-93
2023/01/20 08:36:16;;;;;;;9.10;2.83;;;0.60;99.90;;;;;;5079189;28;20044;-93
2023/01/20 08:38:43;;;;;;;9.23;2.72;;;0.50;99.90;;;;;;5080532;28;20040;-95
2023/01/20 08:41:20;;;;;;;8.70;2.88;;;0.60;99.90;;;;;;5079632;28;20009;-94
2023/01/20 08:43:46;;;;;;;8.35;3.03;;;0.50;99.90;;;;;;5095762;28;20055;-92
2023/01/20 08:46:16;;;;;;;12.80;2.72;;;0.50;99.90;;;;;;5079335;28;20089;-92
2023/01/20 08:48:42;;;;;;;17.33;3.20;;;0.50;99.90;;;;;;5078778;28;20961;-94
2023/01/20 08:51:12;;;;;;;6.50;2.72;;;0.60;99.90;;;;;;5077633;28;20098;-90
2023/01/20 08:53:39;;;;;;;;;;;0.60;99.90;;;;;;5099568;28;20032;-90
2023/01/20 08:56:05;;;;;;;10.70;3.00;;;0.50;99.90;;;;;;5082758;28;19908;-93
2023/01/20 08:58:33;;;;;;;14.73;3.08;;;0.50;99.90;;;;;;5099538;28;20040;-91
2023/01/20 09:00:59;;;;;;;9.95;2.85;;;0.50;99.90;;;;;;5099842;28;20020;-91
2023/01/20 09:03:25;;;;;;;8.40;2.75;;;0.50;99.90;;;;;;5099693;28;20024;-89
2023/01/20 09:05:51;;;;;;;13.15;3.47;;;0.50;99.90;;;;;;5082239;28;20066;-91
2023/01/20 09:08:18;;;;;;;7.13;3.08;;;0.60;99.90;;;;;;5082450;28;20020;-91
2023/01/20 09:10:44;;;;;;;8.15;3.28;;;0.60;99.90;;;;;;5099788;28;20032;-92
2023/01/20 09:13:10;;;;;;;8.40;3.30;;;0.60;99.90;;;;;;5082439;28;20021;-92
2023/01/20 09:15:36;;;;;;;7.05;3.42;;;0.60;99.90;;;;;;5081806;28;20028;-94
2023/01/20 09:18:02;;;;;;;5.05;2.70;;;0.60;99.90;;;;;;5080648;28;20028;-95
2023/01/20 09:20:29;;;;;;;11.15;3.17;;;0.60;99.90;;;;;;5081034;28;20028;-94
2023/01/20 09:22:54;;;;;;;4.97;2.58;;;0.70;99.90;;;;;;5081307;28;20153;-91
2023/01/20 09:25:20;;;;;;;7.38;2.83;;;0.70;99.90;;;;;;5098638;28;20021;-91
2023/01/20 09:27:49;;;;;;;8.70;2.50;;;0.80;99.90;;;;;;5098726;28;20024;-91
2023/01/20 09:30:17;;;;;;;8.82;2.90;;;0.80;99.90;;;;;;5081355;28;20328;-91
2023/01/20 09:32:43;;;;;;;6.88;3.55;;;0.90;99.90;;;;;;5083006;28;20036;-92
2023/01/20 09:35:09;;;;;;;13.32;3.10;;;1.10;99.90;;;;;;5079768;28;20017;-91
2023/01/20 09:43:53;;;;;;;7.55;2.65;;;1.60;99.90;;;;;;5098887;28;20043;-91
2023/01/20 09:46:29;;;;;;;7.07;1.55;;;1.90;99.90;;;;;;5074557;28;20051;-92
2023/01/20 09:54:46;;;;;;;3.67;1.23;;;2.80;99.90;;;;;;5097545;28;19915;-92
2023/01/20 09:57:13;;;;;;;11.32;1.67;;;3.10;99.90;;;;;;5080109;28;20052;-90
2023/01/20 09:59:54;;;;;;;3.65;1.33;;;3.50;99.90;;;;;;5095530;28;20047;-93
2023/01/20 10:02:24;;;;;;;;;;;3.80;99.90;;;;;;5072262;28;20065;-92
2023/01/20 10:05:06;;;;;;;6.20;1.42;;;4.00;99.90;;;;;;5073743;28;19911;-91
2023/01/20 10:07:38;;;;;;;11.10;2.53;;;4.20;99.90;;;;;;5069065;28;20043;-93
2023/01/20 10:10:22;;;;;;;9.68;2.00;;;4.40;99.90;;;;;;5075927;28;20059;-94
2023/01/20 10:12:55;;;;;;;6.68;1.70;;;4.60;99.90;;;;;;5074018;28;20034;-91
2023/01/20 10:15:31;;;;;;;6.60;2.15;;;4.90;99.90;;;;;;5092537;28;20038;-92
2023/01/20 10:18:14;;;;;;;9.75;2.45;;;5.20;99.90;;;;;;5071129;28;20024;-91
2023/01/20 10:20:58;;;;;;;4.68;1.80;;;5.60;99.90;;;;;;5087520;28;20032;-93
2023/01/20 10:23:48;;;;;;;2.72;1.08;;;5.90;99.90;;;;;;5063511;28;20024;-93
2023/01/20 10:26:15;;;;;;;5.97;1.20;;;6.30;99.90;;;;;;5073135;28;20497;-92
2023/01/20 10:29:02;;;;;;;7.93;3.15;;;6.50;99.90;;;;;;5056404;28;20170;-93
2023/01/20 10:31:33;;;;;;;7.13;2.17;;;6.80;99.90;;;;;;5073775;28;20025;-94
2023/01/20 10:34:10;;;;;;;8.98;2.15;;;6.90;99.90;;;;;;5066656;28;20024;-95
2023/01/20 10:36:37;;;;;;;4.97;1.10;;;7.10;99.90;;;;;;5067078;28;20048;-94
2023/01/20 10:39:05;;;;;;;4.47;0.93;;;7.40;99.90;;;;;;5072521;28;20036;-94
2023/01/20 10:41:44;;;;;;;4.85;0.98;;;7.70;99.90;;;;;;5070653;28;20053;-93
2023/01/20 10:44:14;;;;;;;7.03;1.90;;;7.90;99.90;;;;;;5064890;28;20025;-93
2023/01/20 10:47:02;;;;;;;3.75;0.95;;;8.10;99.90;;;;;;5084859;28;20024;-95
2023/01/20 10:49:47;;;;;;;5.53;1.10;;;8.20;99.90;;;;;;5084895;28;20032;-95
2023/01/20 10:53:04;;;;;;;4.03;0.90;;;8.30;99.90;;;;;;5059874;28;20071;-94
2023/01/20 10:55:41;;;;;;;4.13;0.90;;;8.50;99.90;;;;;;5044769;28;20033;-95
2023/01/20 10:58:26;;;;;;;3.00;0.75;;;8.60;99.90;;;;;;5067245;28;20051;-93
2023/01/20 11:00:54;;;;;;;7.47;1.02;;;8.80;99.90;;;;;;5054321;28;20082;-95
2023/01/20 11:03:21;;;;;;;4.45;0.80;;;8.90;99.90;;;;;;5054372;28;20021;-95
2023/01/20 11:05:49;;;;;;;5.65;0.80;;;9.00;99.90;;;;;;5057110;28;20060;-96
2023/01/20 11:08:19;;;;;;;3.75;0.73;;;9.10;99.90;;;;;;5053424;28;20029;-94
2023/01/20 11:10:48;;;;;;;4.10;0.93;;;9.30;99.90;;;;;;5058128;28;20032;-92
2023/01/20 11:13:13;;;;;;;2.03;0.70;;;9.40;99.90;;;;;;5061336;28;20029;-93
2023/01/20 11:15:49;;;;;;;5.80;0.75;;;9.50;99.90;;;;;;5059827;28;20043;-94
2023/01/20 11:18:15;;;;;;;4.68;0.68;;;9.70;99.90;;;;;;5058086;28;20064;-93
2023/01/20 11:20:54;;;;;;;1.65;0.65;;;9.90;99.60;;;;;;5055600;28;20036;-92
2023/01/20 11:23:40;;;;;;;5.55;0.77;;;10.00;97.60;;;;;;5051488;28;20017;-93
2023/01/20 11:26:22;;;;;;;7.20;1.27;;;9.90;96.20;;;;;;5067655;28;20037;-93
2023/01/20 11:28:56;;;;;;;3.10;0.70;;;9.90;95.60;;;;;;5051294;28;20029;-93
2023/01/20 11:31:35;;;;;;;2.78;0.57;;;10.00;94.70;;;;;;5049229;28;20068;-93
2023/01/20 11:34:24;;;;;;;2.85;0.47;;;10.00;93.60;;;;;;5053343;28;20413;-93
2023/01/20 11:37:10;;;;;;;4.53;0.90;;;10.20;93.70;;;;;;5049934;28;20055;-92
2023/01/20 11:39:59;;;;;;;2.78;0.80;;;10.40;92.50;;;;;;5050724;28;20025;-92
2023/01/20 11:42:26;;;;;;;2.85;0.98;;;10.70;91.90;;;;;;5054260;28;20023;-93
2023/01/20 11:45:00;;;;;;;4.88;0.70;;;10.90;91.20;;;;;;5060249;28;20079;-91
2023/01/20 11:47:32;;;;;;;4.00;0.70;;;11.10;90.60;;;;;;5062090;28;20078;-95
2023/01/20 11:50:04;;;;;;;5.97;0.60;;;11.30;90.10;;;;;;5058202;28;20110;-92
2023/01/20 11:52:31;;;;;;;2.92;0.80;;;11.50;88.80;;;;;;5058948;28;20024;-93
2023/01/20 11:55:14;;;;;;;3.83;0.80;;;11.50;86.80;;;;;;5073485;28;20024;-93
2023/01/20 11:57:59;;;;;;;5.38;1.05;;;11.50;86.50;;;;;;5075417;28;20016;-94
2023/01/20 12:00:40;;;;;;;3.03;0.82;;;11.70;86.10;;;;;;5076241;28;20039;-94
2023/01/20 12:03:09;;;;;;;3.45;0.70;;;11.90;85.00;;;;;;5058534;28;20086;-95
2023/01/20 12:05:47;;;;;;;4.68;0.60;;;12.10;83.90;;;;;;5060341;28;20040;-92
2023/01/20 12:08:25;;;;;;;6.10;0.90;;;12.40;83.10;;;;;;5058652;28;20548;-91
2023/01/20 12:10:52;;;;;;;3.13;0.85;;;12.50;81.60;;;;;;5062962;28;20024;-92
2023/01/20 12:13:23;;;;;;;4.57;0.88;;;12.50;80.60;;;;;;5083165;28;20028;-94
2023/01/20 12:15:55;;;;;;;3.50;1.05;;;12.50;80.20;;;;;;5077817;28;20049;-93
2023/01/20 12:18:37;;;;;;;4.88;0.82;;;12.40;79.60;;;;;;5058876;28;20036;-93
2023/01/20 12:21:18;;;;;;;4.63;0.70;;;12.10;79.40;;;;;;5060827;28;20457;-96
2023/01/20 12:23:54;;;;;;;5.72;1.05;;;11.80;79.40;;;;;;5075584;28;20028;-92
2023/01/20 12:26:22;;;;;;;2.58;1.23;;;11.80;80.00;;;;;;5072079;28;20020;-95
2023/01/20 12:28:55;;;;;;;3.42;1.17;;;11.80;79.90;;;;;;5057106;28;20023;-95
2023/01/20 12:31:22;;;;;;;15.18;7.97;;;12.00;79.40;;;;;;5074791;28;20091;-94
2023/01/20 12:34:09;;;;;;;12.77;7.53;;;12.10;79.20;;;;;;5065698;28;20032;-92
2023/01/20 12:37:13;;;;;;;7.45;4.28;;;12.30;78.60;;;;;;5082798;28;20363;-92
2023/01/20 12:39:41;;;;;;;5.18;1.63;;;12.60;77.70;;;;;;5055185;28;20089;-92
2023/01/20 12:42:25;;;;;;;3.42;0.93;;;12.90;76.30;;;;;;5056630;28;20017;-91
2023/01/20 12:45:12;;;;;;;3.60;0.70;;;12.90;75.60;;;;;;5074402;28;20033;-91
2023/01/20 12:47:56;;;;;;;3.85;0.85;;;12.80;74.90;;;;;;5071014;28;20028;-92
2023/01/20 12:50:26;;;;;;;4.00;0.70;;;12.60;74.40;;;;;;5072258;28;20080;-92
2023/01/20 12:52:58;;;;;;;5.22;1.27;;;12.50;74.40;;;;;;5056005;28;20553;-93
2023/01/20 12:56:01;;;;;;;3.85;0.70;;;12.70;74.90;;;;;;5055113;28;20481;-92
2023/01/20 12:58:43;;;;;;;3.78;0.77;;;13.10;74.20;;;;;;5072080;28;20017;-91
2023/01/20 13:01:30;;;;;;;5.25;0.85;;;13.30;73.40;;;;;;5053636;28;20028;-92
2023/01/20 13:04:50;;;;;;;5.88;1.48;;;13.60;72.40;;;;;;5072697;28;20024;-94
2023/01/20 13:07:37;;;;;;;2.92;1.25;;;13.80;71.70;;;;;;4970572;28;20066;-94
2023/01/20 13:10:08;;;;;;;2.97;0.68;;;14.00;71.00;;;;;;4971121;28;20037;-93
2023/01/20 13:12:57;;;;;;;7.80;1.08;;;14.00;70.50;;;;;;4981935;28;20038;-93
2023/01/20 13:15:22;;;;;;;4.22;0.90;;;14.00;69.90;;;;;;4973399;28;20030;-93
2023/01/20 13:18:10;;;;;;;4.10;0.90;;;14.20;69.90;;;;;;4967029;28;20433;-91
2023/01/20 13:20:39;;;;;;;2.53;1.00;;;14.10;68.40;;;;;;4969660;28;20039;-94
2023/01/20 13:23:09;;;;;;;12.93;2.92;;;14.10;68.70;;;;;;4946005;28;20587;-94
2023/01/20 13:25:35;;;;;;;4.85;1.05;;;14.10;68.50;;;;;;4965210;28;20031;-93
2023/01/20 13:28:02;;;;;;;4.88;1.20;;;14.10;68.10;;;;;;4961512;28;20086;-93